Time;durP1;ratioP1;P1;durP2;ratioP2;P2;SDS_P1;SDS_P2;PMS_P1;PMS_P2;Temp;Humidity;BMP_temperature;BMP_pressure;BME280_temperature;BME280_humidity;BME280_pressure;Samples;Min_cycle;Max_cycle;Signal;HPM_P1;HPM_P2
2022/10/05 00:00:19;;;;;;;6.45;4.68;;;15.20;99.90;;;;;;4153763;28;20025;-61
2022/10/05 00:02:22;;;;;;;8.15;4.93;;;15.10;99.90;;;;;;4155385;28;20029;-61
2022/10/05 00:04:27;;;;;;;10.10;5.05;;;15.10;99.90;;;;;;4157251;28;20030;-61
2022/10/05 00:06:29;;;;;;;7.88;4.55;;;15.10;99.90;;;;;;4156859;28;20481;-61
2022/10/05 00:08:33;;;;;;;5.40;4.43;;;15.00;99.90;;;;;;4154303;28;20033;-61
2022/10/05 00:10:33;;;;;;;6.97;3.95;;;15.00;99.90;;;;;;4153652;28;20039;-61
2022/10/05 00:12:34;;;;;;;5.15;4.30;;;15.00;99.90;;;;;;4159088;28;20029;-61
2022/10/05 00:14:35;;;;;;;5.85;4.35;;;15.10;99.90;;;;;;4169668;28;20058;-61
2022/10/05 00:16:35;;;;;;;6.15;4.18;;;15.00;99.90;;;;;;4169977;28;20128;-61
2022/10/05 00:18:37;;;;;;;7.88;4.55;;;15.10;99.90;;;;;;4170218;28;20084;-60
2022/10/05 00:20:40;;;;;;;6.80;4.20;;;15.00;99.90;;;;;;4172487;28;20116;-61
2022/10/05 00:22:40;;;;;;;5.10;3.88;;;15.10;99.90;;;;;;4172052;28;20037;-61
2022/10/05 00:24:42;;;;;;;6.20;3.78;;;15.10;99.90;;;;;;4172107;28;20606;-61
2022/10/05 00:26:43;;;;;;;8.30;5.05;;;15.10;99.90;;;;;;4174343;28;20112;-61
2022/10/05 00:28:43;;;;;;;6.93;4.18;;;15.00;99.90;;;;;;4171726;28;20376;-61
2022/10/05 00:30:44;;;;;;;6.93;4.50;;;15.00;99.90;;;;;;4168898;28;20431;-61
2022/10/05 00:32:46;;;;;;;5.78;4.07;;;15.00;99.90;;;;;;4173932;28;20029;-61
2022/10/05 00:34:46;;;;;;;7.90;4.70;;;15.00;99.90;;;;;;4172117;28;20049;-61
2022/10/05 00:36:47;;;;;;;7.30;4.40;;;15.00;99.90;;;;;;4167976;28;20099;-60
2022/10/05 00:38:48;;;;;;;6.55;4.13;;;14.90;99.90;;;;;;4170153;28;20037;-62
2022/10/05 00:41:06;;;;;;;6.93;4.28;;;14.90;99.90;;;;;;4158906;28;20033;-63
2022/10/05 00:43:24;;;;;;;6.10;4.47;;;14.90;99.90;;;;;;4169292;28;20068;-61
2022/10/05 00:45:30;;;;;;;5.53;4.30;;;14.90;99.90;;;;;;4153283;28;20038;-61
2022/10/05 00:48:00;;;;;;;7.60;4.47;;;14.90;99.90;;;;;;4154480;28;20109;-61
2022/10/05 00:50:16;;;;;;;8.52;4.50;;;14.80;99.90;;;;;;4167573;28;20064;-61
2022/10/05 00:52:28;;;;;;;7.22;4.22;;;14.80;99.90;;;;;;4173314;28;20055;-61
2022/10/05 00:54:45;;;;;;;6.75;4.05;;;14.80;99.90;;;;;;4171859;28;20116;-60
2022/10/05 00:57:07;;;;;;;8.85;4.20;;;14.80;99.90;;;;;;4171975;28;20033;-61
2022/10/05 00:59:25;;;;;;;8.18;4.63;;;14.80;99.90;;;;;;4168083;28;20484;-60
2022/10/05 01:01:47;;;;;;;7.22;4.40;;;14.80;99.90;;;;;;4172710;28;20468;-61
2022/10/05 01:03:59;;;;;;;7.35;4.10;;;14.80;99.90;;;;;;4156867;28;20480;-60
2022/10/05 01:06:33;;;;;;;7.15;4.75;;;14.70;99.90;;;;;;4159316;28;20484;-61
2022/10/05 01:08:50;;;;;;;7.15;4.72;;;14.70;99.90;;;;;;4154130;28;20029;-61
2022/10/05 01:11:16;;;;;;;10.93;4.70;;;14.70;99.90;;;;;;4164900;28;20033;-61
2022/10/05 01:13:33;;;;;;;6.82;4.32;;;14.70;99.90;;;;;;4157642;28;20037;-60
2022/10/05 01:16:04;;;;;;;6.15;4.32;;;14.60;99.90;;;;;;4165988;28;20361;-61
2022/10/05 01:18:13;;;;;;;5.93;4.50;;;14.60;99.90;;;;;;4168578;28;20060;-61
2022/10/05 01:20:51;;;;;;;7.07;3.97;;;14.60;99.90;;;;;;4169933;28;20468;-60
2022/10/05 01:23:25;;;;;;;7.13;4.38;;;14.60;99.90;;;;;;4162361;28;23009;-61
2022/10/05 01:26:00;;;;;;;4.68;3.90;;;14.60;99.90;;;;;;4156228;28;20447;-61
2022/10/05 01:28:07;;;;;;;6.75;4.47;;;14.60;99.90;;;;;;4125310;28;20136;-60
2022/10/05 01:30:36;;;;;;;7.15;4.10;;;14.60;99.90;;;;;;4158188;28;20034;-61
2022/10/05 01:32:52;;;;;;;6.22;4.05;;;14.60;99.90;;;;;;4158939;28;20033;-60
2022/10/05 01:35:28;;;;;;;6.80;4.25;;;14.60;99.90;;;;;;4157415;28;20030;-61
2022/10/05 01:37:37;;;;;;;7.00;3.97;;;14.60;99.90;;;;;;4159095;28;20033;-60
2022/10/05 01:39:51;;;;;;;6.30;4.32;;;14.60;99.90;;;;;;4164335;28;20040;-61
2022/10/05 01:42:18;;;;;;;5.63;4.20;;;14.60;99.90;;;;;;4172752;28;20052;-61
2022/10/05 01:44:39;;;;;;;9.70;4.95;;;14.50;99.90;;;;;;4167099;28;20459;-60
2022/10/05 01:47:08;;;;;;;8.98;5.05;;;14.50;99.90;;;;;;4162978;28;20037;-61
2022/10/05 01:49:31;;;;;;;11.18;5.03;;;14.40;99.90;;;;;;4169308;28;20044;-61
2022/10/05 01:51:55;;;;;;;7.15;4.60;;;14.40;99.90;;;;;;4170753;28;20039;-65
2022/10/05 01:54:41;;;;;;;9.45;4.78;;;14.40;99.90;;;;;;4169496;28;20037;-61
2022/10/05 01:57:11;;;;;;;7.70;4.80;;;14.30;99.90;;;;;;4136666;28;20037;-61
2022/10/05 01:59:36;;;;;;;6.65;4.13;;;14.30;99.90;;;;;;4118795;28;20038;-61
2022/10/05 02:01:58;;;;;;;7.00;4.60;;;14.30;99.90;;;;;;4169201;28;20440;-61
2022/10/05 02:04:09;;;;;;;6.63;4.72;;;14.30;99.90;;;;;;4168355;28;20029;-61
2022/10/05 02:06:21;;;;;;;9.70;4.82;;;14.40;99.90;;;;;;4167878;28;20038;-61
2022/10/05 02:08:35;;;;;;;7.20;4.38;;;14.30;99.90;;;;;;4170687;28;20049;-61
2022/10/05 02:10:50;;;;;;;6.10;4.65;;;14.40;99.90;;;;;;4150614;28;20490;-61
2022/10/05 02:12:58;;;;;;;8.25;5.15;;;14.40;99.90;;;;;;4166582;28;20128;-61
2022/10/05 02:15:14;;;;;;;6.75;5.03;;;14.40;99.90;;;;;;4170249;28;20041;-61
2022/10/05 02:17:33;;;;;;;6.95;4.78;;;14.30;99.90;;;;;;4167617;28;20512;-61
2022/10/05 02:19:39;;;;;;;9.02;5.00;;;14.30;99.90;;;;;;4170956;28;20136;-61
2022/10/05 02:21:45;;;;;;;8.48;4.80;;;14.40;99.90;;;;;;4167159;28;20045;-60
2022/10/05 02:23:50;;;;;;;6.35;4.72;;;14.40;99.90;;;;;;4168886;28;20052;-61
2022/10/05 02:25:53;;;;;;;5.43;4.45;;;14.40;99.90;;;;;;4165327;28;20388;-61
2022/10/05 02:28:19;;;;;;;6.45;4.78;;;14.40;99.90;;;;;;4168423;28;20044;-61
2022/10/05 02:30:19;;;;;;;8.50;4.47;;;14.40;99.90;;;;;;4166005;28;20496;-61
2022/10/05 02:32:24;;;;;;;7.40;4.72;;;14.50;99.90;;;;;;4173028;28;20031;-61
2022/10/05 02:34:26;;;;;;;9.55;5.60;;;14.50;99.90;;;;;;4168911;28;20082;-60
2022/10/05 02:36:34;;;;;;;7.65;5.45;;;14.40;99.90;;;;;;4171906;28;20041;-61
2022/10/05 02:38:54;;;;;;;8.90;5.18;;;14.40;99.90;;;;;;4169738;28;20113;-61
2022/10/05 02:41:33;;;;;;;7.25;4.57;;;14.40;99.90;;;;;;4172884;28;20368;-60
2022/10/05 02:44:07;;;;;;;9.55;5.38;;;14.40;99.90;;;;;;4173028;28;20033;-61
2022/10/05 02:46:18;;;;;;;6.15;4.32;;;14.40;99.90;;;;;;4168969;28;20053;-61
2022/10/05 02:48:37;;;;;;;7.60;4.75;;;14.40;99.90;;;;;;4174617;28;20037;-61
2022/10/05 02:50:44;;;;;;;7.78;5.03;;;14.40;99.90;;;;;;4173409;28;20508;-61
2022/10/05 02:53:15;;;;;;;10.52;4.78;;;14.40;99.90;;;;;;4174145;28;20032;-60
2022/10/05 02:55:24;;;;;;;5.30;4.30;;;14.40;99.90;;;;;;4160644;28;20374;-61
2022/10/05 02:57:29;;;;;;;9.07;5.05;;;14.40;99.90;;;;;;4161843;28;20106;-61
2022/10/05 02:59:50;;;;;;;8.10;5.07;;;14.50;99.90;;;;;;4170618;28;20141;-61
2022/10/05 03:02:14;;;;;;;8.02;4.85;;;14.50;99.90;;;;;;4163594;28;20025;-61
2022/10/05 03:04:51;;;;;;;6.50;5.07;;;14.50;99.90;;;;;;4143918;28;20041;-60
2022/10/05 03:07:10;;;;;;;9.15;6.03;;;14.40;99.90;;;;;;4139690;28;20045;-61
2022/10/05 03:09:14;;;;;;;8.77;4.93;;;14.40;99.90;;;;;;4165697;28;20033;-61
2022/10/05 03:11:29;;;;;;;8.00;5.25;;;14.40;99.90;;;;;;4150347;28;20053;-61
2022/10/05 03:13:59;;;;;;;11.38;5.60;;;14.40;99.90;;;;;;4168057;28;20049;-61
2022/10/05 03:16:14;;;;;;;7.90;5.30;;;14.40;99.90;;;;;;4167119;28;20037;-60
2022/10/05 03:18:20;;;;;;;7.82;5.30;;;14.40;99.90;;;;;;4164334;28;20030;-60
2022/10/05 03:20:39;;;;;;;9.27;5.40;;;14.40;99.90;;;;;;4169857;28;20068;-61
2022/10/05 03:22:57;;;;;;;7.22;4.78;;;14.30;99.90;;;;;;4170467;28;20104;-61
2022/10/05 03:25:19;;;;;;;7.80;4.97;;;14.30;99.90;;;;;;4169057;28;20045;-61
2022/10/05 03:27:34;;;;;;;6.20;4.88;;;14.30;99.90;;;;;;4166890;28;20029;-61
2022/10/05 03:29:56;;;;;;;8.45;4.90;;;14.30;99.90;;;;;;4173310;28;20032;-62
2022/10/05 03:32:02;;;;;;;6.72;4.47;;;14.30;99.90;;;;;;4170612;28;20037;-61
2022/10/05 03:34:17;;;;;;;7.18;5.10;;;14.30;99.90;;;;;;4165816;28;20064;-61
2022/10/05 03:36:56;;;;;;;7.47;4.93;;;14.40;99.90;;;;;;4150994;28;20041;-60
2022/10/05 03:39:12;;;;;;;6.10;4.93;;;14.40;99.90;;;;;;4130191;28;20170;-61
2022/10/05 03:41:19;;;;;;;9.30;5.13;;;14.40;99.90;;;;;;4172090;28;20397;-61
2022/10/05 03:44:01;;;;;;;9.30;4.90;;;14.40;99.90;;;;;;4170766;28;20022;-61
2022/10/05 03:46:12;;;;;;;10.45;5.90;;;14.40;99.90;;;;;;4160402;28;20452;-61
2022/10/05 03:48:28;;;;;;;8.20;5.03;;;14.40;99.90;;;;;;4154156;28;20080;-61
2022/10/05 03:50:49;;;;;;;7.05;4.47;;;14.40;99.90;;;;;;4166862;28;20060;-61
2022/10/05 03:53:01;;;;;;;10.85;4.90;;;14.40;99.90;;;;;;4168931;28;20043;-60
2022/10/05 03:55:30;;;;;;;10.60;5.50;;;14.40;99.90;;;;;;4168687;28;20048;-61
2022/10/05 03:57:36;;;;;;;9.70;5.53;;;14.40;99.90;;;;;;4140010;28;20116;-61
2022/10/05 04:00:08;;;;;;;7.78;5.07;;;14.50;99.90;;;;;;4164898;28;20519;-60
2022/10/05 04:02:24;;;;;;;6.82;5.00;;;14.50;99.90;;;;;;4156089;28;20043;-61
2022/10/05 04:04:33;;;;;;;9.88;5.82;;;14.50;99.90;;;;;;4152107;28;20484;-61
2022/10/05 04:06:42;;;;;;;7.78;5.20;;;14.40;99.90;;;;;;4171119;28;20090;-60
2022/10/05 04:09:13;;;;;;;6.07;4.85;;;14.40;99.90;;;;;;4167361;28;20033;-61
2022/10/05 04:11:24;;;;;;;8.32;5.15;;;14.40;99.90;;;;;;4152291;28;20057;-61
2022/10/05 04:13:47;;;;;;;6.57;4.88;;;14.50;99.90;;;;;;4149795;28;20049;-61
2022/10/05 04:16:11;;;;;;;6.45;4.88;;;14.40;99.90;;;;;;4170297;28;20036;-61
2022/10/05 04:18:30;;;;;;;6.40;4.45;;;14.50;99.90;;;;;;4170618;28;20476;-61
2022/10/05 04:20:52;;;;;;;6.82;4.63;;;14.50;99.90;;;;;;4172826;28;20029;-61
2022/10/05 04:22:58;;;;;;;8.77;4.60;;;14.50;99.90;;;;;;4163430;28;20033;-61
2022/10/05 04:25:08;;;;;;;6.03;4.68;;;14.50;99.90;;;;;;4168359;28;20025;-61
2022/10/05 04:27:16;;;;;;;7.57;5.00;;;14.50;99.90;;;;;;4148786;28;20041;-61
2022/10/05 04:29:35;;;;;;;7.30;4.78;;;14.50;99.90;;;;;;4154988;28;20037;-60
2022/10/05 04:32:14;;;;;;;7.40;4.43;;;14.50;99.90;;;;;;4145752;28;20366;-61
2022/10/05 04:34:35;;;;;;;9.98;5.25;;;14.50;99.90;;;;;;4181064;28;20041;-61
2022/10/05 04:36:47;;;;;;;8.05;5.32;;;14.50;99.90;;;;;;4162988;28;20091;-61
2022/10/05 04:39:14;;;;;;;8.68;4.88;;;14.50;99.90;;;;;;4147872;28;20030;-61
2022/10/05 04:41:51;;;;;;;8.05;5.10;;;14.50;99.90;;;;;;4148764;28;20029;-61
2022/10/05 04:44:08;;;;;;;8.52;5.45;;;14.60;99.90;;;;;;4152410;28;20041;-62
2022/10/05 04:46:14;;;;;;;10.35;5.63;;;14.60;99.90;;;;;;4153418;28;20107;-61
2022/10/05 04:48:26;;;;;;;9.55;5.22;;;14.50;99.90;;;;;;4151149;28;20058;-61
2022/10/05 04:50:56;;;;;;;8.68;5.00;;;14.60;99.90;;;;;;4154624;28;20037;-61
2022/10/05 04:53:26;;;;;;;9.02;5.05;;;14.60;99.90;;;;;;4154420;28;20481;-61
2022/10/05 04:55:44;;;;;;;9.40;5.38;;;14.60;99.90;;;;;;4148960;28;20101;-61
2022/10/05 04:58:09;;;;;;;8.43;5.00;;;14.60;99.90;;;;;;4147146;28;20097;-60
2022/10/05 05:00:42;;;;;;;6.65;4.85;;;14.50;99.90;;;;;;4156472;28;20424;-62
2022/10/05 05:02:48;;;;;;;8.43;4.85;;;14.60;99.90;;;;;;4148915;28;20026;-61
2022/10/05 05:05:20;;;;;;;8.02;5.07;;;14.60;99.90;;;;;;4158936;28;20030;-61
2022/10/05 05:07:30;;;;;;;10.65;5.35;;;14.60;99.90;;;;;;4151582;28;20032;-61
2022/10/05 05:09:39;;;;;;;8.65;5.00;;;14.60;99.90;;;;;;4150942;28;20484;-61
2022/10/05 05:11:59;;;;;;;7.25;5.07;;;14.50;99.90;;;;;;4154684;28;20034;-61
2022/10/05 05:14:05;;;;;;;8.27;4.93;;;14.50;99.90;;;;;;4159518;28;20132;-61
2022/10/05 05:16:14;;;;;;;7.32;5.22;;;14.50;99.90;;;;;;4166868;28;20041;-61
2022/10/05 05:18:52;;;;;;;7.95;5.72;;;14.50;99.90;;;;;;4171158;28;20139;-61
2022/10/05 05:21:12;;;;;;;5.85;4.72;;;14.60;99.90;;;;;;4166667;28;20484;-62
2022/10/05 05:23:26;;;;;;;8.43;5.10;;;14.60;99.90;;;;;;4166872;28;20477;-61
2022/10/05 05:25:35;;;;;;;7.55;5.25;;;14.50;99.90;;;;;;4166771;28;20030;-61
2022/10/05 05:27:41;;;;;;;11.70;5.15;;;14.50;99.90;;;;;;4161170;28;21042;-62
2022/10/05 05:30:05;;;;;;;14.50;5.07;;;14.50;99.90;;;;;;4162977;28;20393;-61
2022/10/05 05:32:34;;;;;;;7.88;4.90;;;14.60;99.90;;;;;;4163082;28;20420;-61
2022/10/05 05:35:03;;;;;;;12.45;5.45;;;14.50;99.90;;;;;;4167727;28;20025;-62
2022/10/05 05:37:41;;;;;;;7.20;5.18;;;14.60;99.90;;;;;;4164731;28;20036;-61
2022/10/05 05:39:58;;;;;;;7.72;5.07;;;14.50;99.90;;;;;;4115993;28;20040;-61
2022/10/05 05:42:23;;;;;;;6.93;5.03;;;14.50;99.90;;;;;;4165619;28;20033;-61
2022/10/05 05:44:27;;;;;;;8.88;5.40;;;14.50;99.90;;;;;;4165479;28;20108;-61
2022/10/05 05:46:40;;;;;;;8.32;5.07;;;14.60;99.90;;;;;;4165231;28;20104;-61
2022/10/05 05:48:43;;;;;;;10.57;4.93;;;14.60;99.90;;;;;;4168143;28;20128;-61
2022/10/05 05:51:08;;;;;;;6.00;4.75;;;14.60;99.90;;;;;;4170231;28;20065;-61
2022/10/05 05:53:34;;;;;;;6.57;4.85;;;14.60;99.90;;;;;;4169773;28;20434;-61
2022/10/05 05:55:40;;;;;;;7.97;5.07;;;14.60;99.90;;;;;;4165858;28;20053;-61
2022/10/05 05:57:47;;;;;;;8.60;5.03;;;14.60;99.90;;;;;;4168727;28;20044;-61
2022/10/05 05:59:55;;;;;;;9.18;5.13;;;14.60;99.90;;;;;;4172129;28;20025;-61
2022/10/05 06:02:08;;;;;;;6.20;4.65;;;14.60;99.90;;;;;;4166568;28;20432;-61
2022/10/05 06:04:11;;;;;;;7.70;5.25;;;14.60;99.90;;;;;;4169979;28;20124;-61
2022/10/05 06:06:17;;;;;;;8.77;5.50;;;14.60;99.90;;;;;;4166805;28;20259;-61
2022/10/05 06:08:26;;;;;;;7.10;5.28;;;14.60;99.90;;;;;;4165392;28;20063;-61
2022/10/05 06:10:37;;;;;;;8.57;4.32;;;14.60;99.90;;;;;;4171421;28;20045;-61
2022/10/05 06:12:42;;;;;;;6.20;4.40;;;14.60;99.90;;;;;;4167500;28;20034;-62
2022/10/05 06:14:51;;;;;;;7.22;4.38;;;14.60;99.90;;;;;;4170719;28;20449;-61
2022/10/05 06:17:18;;;;;;;6.90;5.32;;;14.70;99.90;;;;;;4166109;28;20103;-61
2022/10/05 06:19:22;;;;;;;6.68;4.68;;;14.60;99.90;;;;;;4164282;28;20022;-61
2022/10/05 06:22:03;;;;;;;7.97;5.32;;;14.70;99.90;;;;;;4158145;28;20148;-62
2022/10/05 06:24:17;;;;;;;6.93;4.40;;;14.70;99.90;;;;;;4159415;28;20049;-61
2022/10/05 06:26:38;;;;;;;7.03;4.90;;;14.70;99.90;;;;;;4169490;28;20091;-61
2022/10/05 06:28:39;;;;;;;6.22;4.50;;;14.70;99.90;;;;;;4172820;28;20037;-63
2022/10/05 06:30:58;;;;;;;9.73;4.85;;;14.80;99.90;;;;;;4168156;28;20038;-64
2022/10/05 06:33:16;;;;;;;6.75;5.05;;;14.70;99.90;;;;;;4159270;28;20116;-63
2022/10/05 06:35:21;;;;;;;8.95;5.18;;;14.70;99.90;;;;;;4166841;28;20107;-63
2022/10/05 06:37:40;;;;;;;8.55;4.82;;;14.80;99.90;;;;;;4159852;28;20040;-63
2022/10/05 06:39:53;;;;;;;10.43;5.13;;;14.80;99.90;;;;;;4156686;28;20053;-63
2022/10/05 06:42:15;;;;;;;10.35;5.35;;;14.80;99.90;;;;;;4166528;28;20041;-64
2022/10/05 06:44:36;;;;;;;10.10;5.07;;;14.80;99.90;;;;;;4170210;28;20044;-63
2022/10/05 06:46:51;;;;;;;8.70;5.07;;;14.80;99.90;;;;;;4169691;28;20029;-63
2022/10/05 06:49:25;;;;;;;11.25;5.20;;;14.80;99.90;;;;;;4168695;28;20396;-63
2022/10/05 06:51:41;;;;;;;10.45;5.20;;;14.80;99.90;;;;;;4169585;28;20034;-64
2022/10/05 06:54:03;;;;;;;8.02;4.28;;;14.80;99.90;;;;;;4166485;28;20107;-63
2022/10/05 06:56:25;;;;;;;7.43;4.65;;;14.90;99.90;;;;;;4170069;28;20060;-63
2022/10/05 06:58:44;;;;;;;6.43;4.18;;;14.90;99.90;;;;;;4164658;28;20037;-63
2022/10/05 07:01:03;;;;;;;9.60;4.93;;;14.90;99.90;;;;;;4173424;28;20439;-64
2022/10/05 07:03:17;;;;;;;7.18;4.63;;;14.90;99.90;;;;;;4149323;28;20026;-63
2022/10/05 07:05:55;;;;;;;6.57;4.90;;;14.90;99.90;;;;;;4170183;28;20036;-63
2022/10/05 07:08:09;;;;;;;6.45;3.70;;;14.90;99.90;;;;;;4165634;28;20499;-64
2022/10/05 07:10:19;;;;;;;7.30;4.03;;;14.90;99.90;;;;;;4151507;28;20121;-65
2022/10/05 07:12:31;;;;;;;6.30;4.22;;;15.00;99.90;;;;;;4144737;28;20022;-63
2022/10/05 07:14:49;;;;;;;5.03;3.80;;;14.90;99.90;;;;;;4171137;28;20483;-63
2022/10/05 07:17:14;;;;;;;8.55;4.32;;;14.90;99.90;;;;;;4167210;28;20036;-63
2022/10/05 07:19:23;;;;;;;4.95;3.90;;;15.00;99.90;;;;;;4155255;28;20038;-63
2022/10/05 07:22:01;;;;;;;6.60;4.38;;;15.00;99.90;;;;;;4170704;28;20033;-64
2022/10/05 07:24:23;;;;;;;5.55;3.88;;;15.00;99.90;;;;;;4169163;28;20039;-63
2022/10/05 07:26:35;;;;;;;5.05;3.88;;;15.00;99.90;;;;;;4167820;28;20384;-64
2022/10/05 07:28:56;;;;;;;5.97;4.00;;;15.00;99.90;;;;;;4175592;28;20029;-63
2022/10/05 07:31:19;;;;;;;7.60;4.35;;;15.10;99.90;;;;;;4169724;28;20052;-63
2022/10/05 07:33:26;;;;;;;6.13;4.22;;;15.00;99.90;;;;;;4168308;28;20504;-63
2022/10/05 07:38:11;;;;;;;9.40;4.40;;;15.00;99.90;;;;;;4174442;28;20033;-64
2022/10/05 07:40:40;;;;;;;6.28;3.95;;;15.10;99.90;;;;;;4169808;28;20033;-64
2022/10/05 07:43:06;;;;;;;4.57;3.63;;;15.10;99.90;;;;;;4170249;28;20041;-64
2022/10/05 07:45:19;;;;;;;6.18;4.18;;;15.00;99.90;;;;;;4171283;28;20056;-64
2022/10/05 07:47:44;;;;;;;7.70;4.53;;;15.10;99.90;;;;;;4166936;28;20040;-64
2022/10/05 07:49:52;;;;;;;6.90;3.70;;;15.10;99.90;;;;;;4167290;28;20036;-64
2022/10/05 07:51:59;;;;;;;6.15;3.65;;;15.10;99.90;;;;;;4165388;28;20034;-63
2022/10/05 07:54:05;;;;;;;5.80;3.50;;;15.10;99.90;;;;;;4171845;28;20063;-64
2022/10/05 07:56:24;;;;;;;5.28;3.90;;;15.20;99.90;;;;;;4168959;28;20029;-64
2022/10/05 07:58:33;;;;;;;5.78;3.58;;;15.20;99.90;;;;;;4162952;28;20019;-64
2022/10/05 08:01:05;;;;;;;6.30;3.85;;;15.20;99.90;;;;;;4173846;28;20029;-63
2022/10/05 08:03:13;;;;;;;4.88;3.50;;;15.20;99.90;;;;;;4169253;28;20026;-63
2022/10/05 08:05:28;;;;;;;9.23;4.18;;;15.30;99.90;;;;;;4165072;28;20088;-63
2022/10/05 08:07:32;;;;;;;6.78;3.75;;;15.20;99.90;;;;;;4174476;28;20040;-64
2022/10/05 08:09:46;;;;;;;7.50;4.15;;;15.30;99.90;;;;;;4179195;28;20033;-63
2022/10/05 08:12:18;;;;;;;4.63;3.42;;;15.30;99.90;;;;;;4137553;28;20562;-64
2022/10/05 08:14:48;;;;;;;5.68;3.40;;;15.40;99.90;;;;;;4169224;28;20052;-64
2022/10/05 08:16:52;;;;;;;5.82;3.30;;;15.30;99.90;;;;;;4176807;28;20071;-63
2022/10/05 08:19:16;;;;;;;5.28;3.35;;;15.40;99.90;;;;;;4170010;28;20028;-64
2022/10/05 08:21:19;;;;;;;;;;;15.40;99.90;;;;;;4178995;28;20425;-63
2022/10/05 08:23:40;;;;;;;6.90;3.50;;;15.50;99.90;;;;;;4175375;28;19916;-64
2022/10/05 08:25:45;;;;;;;5.90;3.03;;;15.50;99.90;;;;;;4175772;28;20071;-64
2022/10/05 08:28:13;;;;;;;4.95;2.95;;;15.50;99.90;;;;;;4177930;28;20185;-64
2022/10/05 08:30:15;;;;;;;3.97;3.03;;;15.50;99.90;;;;;;4173453;28;20388;-64
2022/10/05 08:32:36;;;;;;;5.22;3.42;;;15.60;99.90;;;;;;4171094;28;20032;-63
2022/10/05 08:35:14;;;;;;;5.35;3.67;;;15.60;99.90;;;;;;4166501;28;20057;-64
2022/10/05 08:37:29;;;;;;;4.85;3.30;;;15.60;99.90;;;;;;4158415;28;20042;-64
2022/10/05 08:39:39;;;;;;;5.47;3.42;;;15.60;99.90;;;;;;4176739;28;20090;-64
2022/10/05 08:42:20;;;;;;;5.93;3.30;;;15.70;99.90;;;;;;4161583;28;20036;-66
2022/10/05 08:44:55;;;;;;;7.15;3.50;;;15.70;99.90;;;;;;4149406;28;20034;-64
2022/10/05 08:47:18;;;;;;;6.22;3.42;;;15.70;99.90;;;;;;4154745;28;20056;-64
2022/10/05 08:49:19;;;;;;;5.72;3.65;;;15.70;99.90;;;;;;4162284;28;20393;-63
2022/10/05 08:51:44;;;;;;;5.13;3.40;;;15.70;99.90;;;;;;4177087;28;20049;-64
2022/10/05 08:54:03;;;;;;;4.35;3.35;;;15.70;99.90;;;;;;4161501;28;20485;-64
2022/10/05 08:56:13;;;;;;;6.03;3.38;;;15.80;99.90;;;;;;4161273;28;20434;-64
2022/10/05 08:58:47;;;;;;;5.57;3.25;;;15.80;99.90;;;;;;4162068;28;20033;-63
2022/10/05 09:01:17;;;;;;;9.43;3.83;;;15.80;99.90;;;;;;4161191;28;20033;-64
2022/10/05 09:03:47;;;;;;;6.13;3.45;;;15.80;99.90;;;;;;4166988;28;20037;-64
2022/10/05 09:06:13;;;;;;;6.55;3.42;;;15.80;99.90;;;;;;4174632;28;20041;-64
2022/10/05 09:08:32;;;;;;;6.03;3.13;;;15.90;99.90;;;;;;4151032;28;20047;-64
2022/10/05 09:11:02;;;;;;;6.43;3.30;;;15.90;99.90;;;;;;4178584;28;20024;-64
2022/10/05 09:13:27;;;;;;;4.63;3.20;;;15.90;99.90;;;;;;4174974;28;20052;-64
2022/10/05 09:15:46;;;;;;;5.20;3.13;;;16.00;99.90;;;;;;4177487;28;20116;-64
2022/10/05 09:18:06;;;;;;;4.05;2.97;;;16.00;99.90;;;;;;4152149;28;20033;-64
2022/10/05 09:20:32;;;;;;;4.85;2.83;;;16.10;99.90;;;;;;4159017;28;20116;-65
2022/10/05 09:22:56;;;;;;;8.95;3.30;;;16.10;99.90;;;;;;4165207;28;20923;-64
2022/10/05 09:25:16;;;;;;;6.28;2.92;;;16.20;99.90;;;;;;4153240;28;20444;-64
2022/10/05 09:27:24;;;;;;;7.40;2.97;;;16.20;99.90;;;;;;4166188;28;20116;-64
2022/10/05 09:29:38;;;;;;;3.45;2.60;;;16.20;99.90;;;;;;4161490;28;20037;-65
2022/10/05 09:31:56;;;;;;;5.03;2.90;;;16.30;99.90;;;;;;4174431;28;20518;-64
2022/10/05 09:34:41;;;;;;;3.83;2.65;;;16.30;99.90;;;;;;4170836;28;20090;-64
2022/10/05 09:37:09;;;;;;;3.40;2.40;;;16.40;99.90;;;;;;4175126;28;20439;-65
2022/10/05 09:39:31;;;;;;;9.98;3.20;;;16.50;99.90;;;;;;4145094;28;20029;-64
2022/10/05 09:42:07;;;;;;;3.65;2.40;;;16.50;99.90;;;;;;4144156;28;20038;-67
2022/10/05 09:44:17;;;;;;;3.17;2.70;;;16.60;99.90;;;;;;4163299;28;20033;-65
2022/10/05 09:46:47;;;;;;;6.53;2.78;;;16.60;99.90;;;;;;4175084;28;20033;-64
2022/10/05 09:49:24;;;;;;;3.47;2.35;;;16.70;99.90;;;;;;4177708;28;20067;-64
2022/10/05 09:51:37;;;;;;;5.20;3.08;;;16.80;99.90;;;;;;4175303;28;20037;-66
2022/10/05 09:53:47;;;;;;;3.30;2.37;;;16.90;99.90;;;;;;4166292;28;20029;-64
2022/10/05 09:56:11;;;;;;;4.25;2.33;;;16.90;99.90;;;;;;4160748;28;20033;-64
2022/10/05 09:58:30;;;;;;;5.47;2.75;;;17.00;99.90;;;;;;4169595;28;20480;-64
2022/10/05 10:00:59;;;;;;;3.28;2.50;;;17.00;99.90;;;;;;4177182;28;20583;-65
2022/10/05 10:03:18;;;;;;;3.67;2.10;;;17.10;99.90;;;;;;4173625;28;20025;-64
2022/10/05 10:05:56;;;;;;;3.72;2.13;;;17.10;99.90;;;;;;4177163;28;20364;-65
2022/10/05 10:08:32;;;;;;;5.05;2.58;;;17.20;99.90;;;;;;4158360;28;20026;-65
2022/10/05 10:10:42;;;;;;;4.60;2.08;;;17.20;99.90;;;;;;4145335;28;20049;-64
2022/10/05 10:13:20;;;;;;;4.35;1.80;;;17.30;99.90;;;;;;4159195;28;20057;-65
2022/10/05 10:15:47;;;;;;;2.45;1.92;;;17.30;99.90;;;;;;4159860;28;20087;-64
2022/10/05 10:17:54;;;;;;;6.68;2.30;;;17.40;99.90;;;;;;4160523;28;20053;-64
2022/10/05 10:20:13;;;;;;;2.35;2.00;;;17.50;99.90;;;;;;4176594;28;20041;-64
2022/10/05 10:22:44;;;;;;;3.38;1.70;;;17.50;99.90;;;;;;4174392;28;20055;-65
2022/10/05 10:25:18;;;;;;;2.85;1.90;;;17.60;99.90;;;;;;4160500;28;20059;-65
2022/10/05 10:28:03;;;;;;;5.65;1.83;;;17.60;99.90;;;;;;4160538;28;20033;-64
2022/10/05 10:30:34;;;;;;;2.33;1.67;;;17.60;99.90;;;;;;4147677;28;20034;-65
2022/10/05 10:33:02;;;;;;;3.95;2.05;;;17.70;99.90;;;;;;4161799;28;20040;-64
2022/10/05 10:35:12;;;;;;;2.38;1.48;;;17.70;99.90;;;;;;4160880;28;20029;-65
2022/10/05 10:37:38;;;;;;;3.03;1.67;;;17.70;99.90;;;;;;4169207;28;20032;-65
2022/10/05 10:39:44;;;;;;;3.60;1.40;;;17.80;99.90;;;;;;4177242;28;20029;-65
2022/10/05 10:42:06;;;;;;;2.92;1.20;;;17.80;99.90;;;;;;4160367;28;20083;-65
2022/10/05 10:44:09;;;;;;;2.28;1.42;;;17.80;99.90;;;;;;4168603;28;20033;-64
2022/10/05 10:46:43;;;;;;;1.25;1.15;;;17.90;99.90;;;;;;4168945;28;20040;-65
2022/10/05 10:49:05;;;;;;;2.47;1.35;;;17.90;99.90;;;;;;4177288;28;20033;-65
2022/10/05 10:51:32;;;;;;;1.92;1.40;;;18.00;99.90;;;;;;4176193;28;20407;-65
2022/10/05 10:53:51;;;;;;;2.55;1.58;;;18.00;99.90;;;;;;4166403;28;20547;-64
2022/10/05 10:55:52;;;;;;;2.50;1.45;;;18.10;99.90;;;;;;4160222;28;20030;-64
2022/10/05 10:58:25;;;;;;;2.17;1.30;;;18.10;99.90;;;;;;4160699;28;20033;-65
2022/10/05 11:00:31;;;;;;;2.97;1.58;;;18.10;99.90;;;;;;4155858;28;20507;-64
2022/10/05 11:03:00;;;;;;;3.83;1.30;;;18.20;99.90;;;;;;4166324;28;20037;-66
2022/10/05 11:05:14;;;;;;;2.65;1.42;;;18.20;99.90;;;;;;4151659;28;20037;-65
2022/10/05 11:07:17;;;;;;;2.50;1.40;;;18.30;99.90;;;;;;4162653;28;20037;-64
2022/10/05 11:09:39;;;;;;;1.95;1.30;;;18.30;99.90;;;;;;4164113;28;20030;-65
2022/10/05 11:12:12;;;;;;;8.70;1.50;;;18.40;99.90;;;;;;4163086;28;20033;-64
2022/10/05 11:14:34;;;;;;;3.08;1.50;;;18.40;99.90;;;;;;4168109;28;20098;-65
2022/10/05 11:17:07;;;;;;;1.90;1.23;;;18.50;99.90;;;;;;4169605;28;20084;-65
2022/10/05 11:19:29;;;;;;;3.95;1.55;;;18.50;99.90;;;;;;4132837;28;20543;-64
2022/10/05 11:21:39;;;;;;;2.97;1.52;;;18.60;99.90;;;;;;4160469;28;20140;-65
2022/10/05 11:23:47;;;;;;;2.85;1.63;;;18.60;99.90;;;;;;4160391;28;20503;-64
2022/10/05 11:26:15;;;;;;;3.28;1.60;;;18.70;99.90;;;;;;4162915;28;20107;-65
2022/10/05 11:28:35;;;;;;;2.28;1.55;;;18.70;99.90;;;;;;4159562;28;20219;-65
2022/10/05 11:31:12;;;;;;;5.65;1.55;;;18.70;99.90;;;;;;4154446;28;20038;-64
2022/10/05 11:33:42;;;;;;;5.78;1.50;;;18.80;99.90;;;;;;4168748;28;20132;-65
2022/10/05 11:36:03;;;;;;;7.78;1.83;;;18.90;99.90;;;;;;4153156;28;20500;-66
2022/10/05 11:38:37;;;;;;;3.15;1.60;;;18.90;99.90;;;;;;4176416;28;20037;-64
2022/10/05 11:41:14;;;;;;;3.05;1.45;;;19.00;99.90;;;;;;4167944;28;20036;-64
2022/10/05 11:43:33;;;;;;;1.92;1.25;;;19.00;99.90;;;;;;4174787;28;20036;-64
2022/10/05 11:46:19;;;;;;;2.67;1.35;;;19.10;99.90;;;;;;4178936;28;20044;-65
2022/10/05 11:48:53;;;;;;;9.60;1.70;;;19.10;99.90;;;;;;4080168;29;20053;-65
2022/10/05 11:51:23;;;;;;;3.08;1.55;;;19.20;99.90;;;;;;4048495;29;20416;-65
2022/10/05 11:53:29;;;;;;;4.75;1.20;;;19.20;99.90;;;;;;4100773;28;20033;-65
2022/10/05 11:55:56;;;;;;;3.40;1.77;;;19.30;99.90;;;;;;4178372;28;20040;-65
2022/10/05 11:58:22;;;;;;;4.32;1.65;;;19.40;99.90;;;;;;4147136;28;20033;-66
2022/10/05 12:00:29;;;;;;;1.85;1.30;;;19.50;99.90;;;;;;4162473;28;20400;-64